createdAt,value
2022-12-18T00:00:24.417Z,-2.83
2022-12-18T00:05:26.425Z,-2.91
2022-12-18T00:10:29.573Z,-2.88
2022-12-18T00:15:31.570Z,-2.90
2022-12-18T00:20:38.191Z,-3.02
2022-12-18T00:25:40.241Z,-2.96
2022-12-18T00:30:42.768Z,-2.96
2022-12-18T00:35:44.779Z,-3.03
2022-12-18T00:40:46.782Z,-2.97
2022-12-18T00:45:48.859Z,-2.99
2022-12-18T00:50:51.910Z,-3.02
2022-12-18T00:55:53.926Z,-3.04
2022-12-18T01:00:55.967Z,-3.17
2022-12-18T01:05:57.982Z,-3.11
2022-12-18T01:11:00.015Z,-3.09
2022-12-18T01:16:02.274Z,-3.18
2022-12-18T01:21:13.768Z,-3.11
2022-12-18T01:26:17.271Z,-3.18
2022-12-18T01:31:23.451Z,-3.10
2022-12-18T01:36:29.321Z,-3.18
2022-12-18T01:41:52.399Z,-3.22
2022-12-18T01:46:54.426Z,-3.26
2022-12-18T01:51:56.502Z,-3.15
2022-12-18T01:56:58.529Z,-3.14
2022-12-18T02:02:01.615Z,-3.20
2022-12-18T02:07:06.771Z,-3.11
2022-12-18T02:12:18.702Z,-2.94
2022-12-18T02:17:24.614Z,-2.95
2022-12-18T02:22:35.498Z,-3.04
2022-12-18T02:27:39.167Z,-3.10
2022-12-18T02:32:46.148Z,-3.28
2022-12-18T02:37:48.554Z,-3.28
2022-12-18T02:42:50.727Z,-3.24
2022-12-18T02:47:52.818Z,-3.25
2022-12-18T02:53:20.754Z,-3.35
2022-12-18T02:58:25.750Z,-3.26
2022-12-18T03:03:45.825Z,-3.32
2022-12-18T03:08:51.945Z,-3.45
2022-12-18T03:13:58.240Z,-3.42
2022-12-18T03:19:04.655Z,-3.37
2022-12-18T03:24:10.337Z,-3.37
2022-12-18T03:29:45.358Z,-3.40
2022-12-18T03:34:51.879Z,-3.34
2022-12-18T03:39:54.076Z,-3.38
2022-12-18T03:45:09.010Z,-3.36
2022-12-18T03:50:20.960Z,-3.40
2022-12-18T03:55:26.399Z,-3.42
2022-12-18T04:00:30.410Z,-3.44
2022-12-18T04:05:36.390Z,-3.45
2022-12-18T04:10:38.484Z,-3.44
2022-12-18T04:15:41.273Z,-3.53
2022-12-18T04:20:43.297Z,-3.44
2022-12-18T04:25:45.295Z,-3.47
2022-12-18T04:30:47.409Z,-3.57
2022-12-18T04:35:49.928Z,-3.48
2022-12-18T04:40:51.928Z,-3.48
2022-12-18T04:45:53.948Z,-3.49
2022-12-18T04:50:56.012Z,-3.63
2022-12-18T04:56:13.266Z,-3.63
2022-12-18T05:01:17.595Z,-3.58
2022-12-18T05:06:19.789Z,-3.63
2022-12-18T05:11:21.801Z,-3.65
2022-12-18T05:16:24.062Z,-3.66
2022-12-18T05:21:26.326Z,-3.69
2022-12-18T05:26:28.334Z,-3.71
2022-12-18T05:31:34.602Z,-3.74
2022-12-18T05:36:39.634Z,-3.76
2022-12-18T05:41:41.755Z,-3.72
2022-12-18T05:46:44.589Z,-3.83
2022-12-18T05:51:46.985Z,-3.88
2022-12-18T05:56:49.175Z,-3.76
2022-12-18T06:01:51.378Z,-3.82
2022-12-18T06:06:53.470Z,-3.87
2022-12-18T06:11:55.469Z,-3.75
2022-12-18T06:16:57.597Z,-3.75
2022-12-18T06:21:59.969Z,-3.87
2022-12-18T06:27:01.947Z,-3.85
2022-12-18T06:32:04.146Z,-4.01
2022-12-18T06:37:06.177Z,-4.05
2022-12-18T06:42:08.220Z,-3.94
2022-12-18T06:47:10.578Z,-3.93
2022-12-18T06:52:12.825Z,-3.94
2022-12-18T06:57:14.886Z,-3.92
2022-12-18T07:02:17.154Z,-3.74
2022-12-18T07:07:19.345Z,-3.72
2022-12-18T07:12:21.349Z,-3.80
2022-12-18T07:17:23.393Z,-3.67
2022-12-18T07:22:26.783Z,-3.60
2022-12-18T07:27:28.835Z,-3.65
2022-12-18T07:32:31.571Z,-3.48
2022-12-18T07:37:33.975Z,-3.44
2022-12-18T07:42:37.084Z,-3.28
2022-12-18T07:47:39.205Z,-3.13
2022-12-18T07:52:41.242Z,-3.06
2022-12-18T07:57:53.301Z,-2.69
2022-12-18T08:02:57.886Z,-2.52
2022-12-18T08:07:59.941Z,-2.32
2022-12-18T08:13:05.148Z,-1.83
2022-12-18T08:18:12.704Z,-1.63
2022-12-18T08:23:16.240Z,-1.30
2022-12-18T08:28:18.594Z,-1.12
2022-12-18T08:33:20.681Z,-0.91
2022-12-18T08:38:24.262Z,-0.79
2022-12-18T08:43:44.561Z,-0.48
2022-12-18T08:48:47.346Z,-0.32
2022-12-18T08:53:49.430Z,0.02
2022-12-18T08:58:55.571Z,0.19
2022-12-18T09:03:57.610Z,0.19
2022-12-18T09:08:59.759Z,0.46
2022-12-18T09:14:02.976Z,0.41
2022-12-18T09:19:05.776Z,0.49
2022-12-18T09:24:14.387Z,0.40
2022-12-18T09:29:18.756Z,0.49
2022-12-18T09:34:22.892Z,0.64
2022-12-18T09:39:25.134Z,0.89
2022-12-18T09:44:47.051Z,1.07
2022-12-18T09:49:53.826Z,1.77
2022-12-18T09:55:05.275Z,3.41
2022-12-18T10:00:20.046Z,4.03
2022-12-18T10:05:36.857Z,5.95
2022-12-18T10:10:49.636Z,9.07
2022-12-18T10:16:11.711Z,9.08
2022-12-18T10:21:20.837Z,10.90
2022-12-18T10:26:23.050Z,11.89
2022-12-18T10:31:25.737Z,13.67
2022-12-18T10:36:27.917Z,15.76
2022-12-18T10:41:31.860Z,17.56
2022-12-18T10:46:33.993Z,20.13
2022-12-18T10:51:38.577Z,20.34
2022-12-18T10:56:41.112Z,22.34
2022-12-18T11:01:58.203Z,24.07
2022-12-18T11:07:03.911Z,24.27
2022-12-18T11:12:29.434Z,23.54
2022-12-18T11:17:36.725Z,24.83
2022-12-18T11:22:39.475Z,25.56
2022-12-18T11:27:41.722Z,26.36
2022-12-18T11:32:48.205Z,26.06
2022-12-18T11:38:00.450Z,25.34
2022-12-18T11:43:17.948Z,24.39
2022-12-18T11:49:12.696Z,23.78
2022-12-18T11:54:17.071Z,17.69
2022-12-18T11:59:41.243Z,22.74
2022-12-18T12:04:46.990Z,25.06
2022-12-18T12:10:13.185Z,26.43
2022-12-18T12:15:37.262Z,25.96
2022-12-18T12:20:47.033Z,25.67
2022-12-18T12:26:00.422Z,25.19
2022-12-18T12:31:21.074Z,19.79
2022-12-18T12:36:23.038Z,17.39
2022-12-18T12:41:47.522Z,14.52
2022-12-18T12:46:52.908Z,11.23
2022-12-18T12:52:04.679Z,10.61
2022-12-18T12:57:34.656Z,10.11
2022-12-18T13:02:46.863Z,9.02
2022-12-18T13:07:59.290Z,7.30
2022-12-18T13:13:04.385Z,6.38
2022-12-18T13:18:10.327Z,5.98
2022-12-18T13:23:24.627Z,5.27
2022-12-18T13:28:46.023Z,4.79
2022-12-18T13:34:24.568Z,4.33
2022-12-18T13:39:23.828Z,4.07
2022-12-18T13:44:41.638Z,3.80
2022-12-18T13:49:45.340Z,3.63
2022-12-18T13:54:56.197Z,3.51
2022-12-18T13:59:59.639Z,3.47
2022-12-18T14:05:01.674Z,3.27
2022-12-18T14:10:26.079Z,3.18
2022-12-18T14:15:26.148Z,2.97
2022-12-18T14:20:30.916Z,2.80
2022-12-18T14:25:34.074Z,2.62
2022-12-18T14:30:39.779Z,2.45
2022-12-18T14:35:44.460Z,2.29
2022-12-18T14:40:46.702Z,2.05
2022-12-18T14:45:50.512Z,1.95
2022-12-18T14:51:14.910Z,1.64
2022-12-18T14:56:26.567Z,1.52
2022-12-18T15:01:36.113Z,1.38
2022-12-18T15:06:41.022Z,1.28
2022-12-18T15:11:42.966Z,1.05
2022-12-18T15:16:46.331Z,0.89
2022-12-18T15:21:48.534Z,0.66
2022-12-18T15:26:50.638Z,0.58
2022-12-18T15:32:01.084Z,0.39
2022-12-18T15:37:03.194Z,0.39
2022-12-18T15:42:28.672Z,0.30
2022-12-18T15:47:30.866Z,0.12
2022-12-18T15:52:41.064Z,0.10
2022-12-18T15:57:43.096Z,0.05
2022-12-18T16:02:45.296Z,-0.11
2022-12-18T16:07:47.661Z,-0.31
2022-12-18T16:12:49.729Z,-0.37
2022-12-18T16:17:52.909Z,-0.44
2022-12-18T16:22:55.054Z,-0.50
2022-12-18T16:27:57.793Z,-0.60
2022-12-18T16:33:00.130Z,-0.71
2022-12-18T16:38:02.221Z,-0.89
2022-12-18T16:43:04.252Z,-0.94
2022-12-18T16:48:06.601Z,-0.95
2022-12-18T16:53:08.666Z,-1.03
2022-12-18T16:58:11.147Z,-1.07
2022-12-18T17:03:13.315Z,-1.20
2022-12-18T17:08:15.506Z,-1.15
2022-12-18T17:13:21.381Z,-1.23
2022-12-18T17:18:26.934Z,-1.36
2022-12-18T17:23:30.054Z,-1.47
2022-12-18T17:28:32.073Z,-1.42
2022-12-18T17:33:34.121Z,-1.53
2022-12-18T17:38:36.850Z,-1.60
2022-12-18T17:43:47.658Z,-1.63
2022-12-18T17:53:52.370Z,-1.83
2022-12-18T17:58:54.666Z,-1.87
2022-12-18T18:03:56.846Z,-1.74
2022-12-18T18:08:58.952Z,-1.96
2022-12-18T18:14:01.818Z,-2.14
2022-12-18T18:19:06.833Z,-2.09
2022-12-18T18:24:10.428Z,-2.18
2022-12-18T18:29:21.204Z,-2.15
2022-12-18T18:34:26.559Z,-2.13
2022-12-18T18:39:29.490Z,-2.24
2022-12-18T18:44:31.764Z,-2.37
2022-12-18T18:49:34.325Z,-2.42
2022-12-18T18:54:36.453Z,-2.42
2022-12-18T18:59:38.587Z,-2.46
2022-12-18T19:04:42.715Z,-2.48
2022-12-18T19:09:51.980Z,-2.43
2022-12-18T19:14:54.820Z,-2.53
2022-12-18T19:19:56.862Z,-2.64
2022-12-18T19:24:58.983Z,-2.51
2022-12-18T19:30:01.088Z,-2.63
2022-12-18T19:35:03.189Z,-2.62
2022-12-18T19:40:12.303Z,-2.81
2022-12-18T19:45:14.905Z,-2.70
2022-12-18T19:50:17.679Z,-2.68
2022-12-18T19:55:19.829Z,-2.69
2022-12-18T20:00:22.011Z,-2.63
2022-12-18T20:05:25.358Z,-2.63
2022-12-18T20:10:27.438Z,-2.56
2022-12-18T20:15:29.468Z,-2.74
2022-12-18T20:20:31.530Z,-2.70
2022-12-18T20:25:33.708Z,-2.81
2022-12-18T20:30:35.920Z,-2.93
2022-12-18T20:35:38.021Z,-3.01
2022-12-18T20:40:43.412Z,-3.01
2022-12-18T20:45:45.595Z,-3.12
2022-12-18T20:51:06.027Z,-3.08
2022-12-18T20:56:21.196Z,-3.09
2022-12-18T21:01:25.174Z,-3.12
2022-12-18T21:06:27.397Z,-3.14
2022-12-18T21:11:50.626Z,-3.12
2022-12-18T21:16:52.729Z,-3.18
2022-12-18T21:21:56.332Z,-3.10
2022-12-18T21:26:58.376Z,-3.15
2022-12-18T21:32:02.154Z,-3.10
2022-12-18T21:37:04.537Z,-3.04
2022-12-18T21:42:25.932Z,-2.97
2022-12-18T21:47:28.060Z,-2.93
2022-12-18T21:52:32.098Z,-3.05
2022-12-18T21:57:34.441Z,-3.03
2022-12-18T22:02:36.544Z,-3.08
2022-12-18T22:07:38.802Z,-3.10
2022-12-18T22:12:44.087Z,-3.05
2022-12-18T22:17:47.554Z,-3.31
2022-12-18T22:22:51.761Z,-3.52
2022-12-18T22:28:12.216Z,-3.58
2022-12-18T22:33:14.320Z,-3.71
2022-12-18T22:38:17.569Z,-3.80
2022-12-18T22:43:19.587Z,-3.79
2022-12-18T22:48:21.807Z,-3.83
2022-12-18T22:53:24.381Z,-3.88
2022-12-18T22:58:26.467Z,-3.97
2022-12-18T23:03:28.620Z,-3.83
2022-12-18T23:08:30.727Z,-3.92
2022-12-18T23:13:34.322Z,-3.96
2022-12-18T23:18:37.083Z,-3.85
2022-12-18T23:23:39.456Z,-3.72
2022-12-18T23:28:41.788Z,-3.52
2022-12-18T23:33:45.424Z,-3.31
2022-12-18T23:38:49.722Z,-3.25
2022-12-18T23:43:53.041Z,-3.20
2022-12-18T23:48:55.173Z,-3.17
2022-12-18T23:54:00.992Z,-3.11
2022-12-18T23:59:03.106Z,-3.02
